sensor_id;sensor_type;location;lat;lon;timestamp;pressure;altitude;pressure_sealevel;temperature;humidity
50065;BME280;35951;47.848;-122.338;2022-09-09T00:01:03;101851.07;;;19.34;100.00
50065;BME280;35951;47.848;-122.338;2022-09-09T00:03:47;101852.90;;;19.25;100.00
50065;BME280;35951;47.848;-122.338;2022-09-09T00:06:33;101851.19;;;19.17;100.00
50065;BME280;35951;47.848;-122.338;2022-09-09T00:09:12;101862.19;;;19.12;100.00
50065;BME280;35951;47.848;-122.338;2022-09-09T00:17:35;101839.05;;;18.92;100.00
50065;BME280;35951;47.848;-122.338;2022-09-09T00:22:52;101841.69;;;18.83;100.00
50065;BME280;35951;47.848;-122.338;2022-09-09T00:25:47;101839.06;;;18.78;100.00
50065;BME280;35951;47.848;-122.338;2022-09-09T00:28:16;101836.44;;;18.72;100.00
50065;BME280;35951;47.848;-122.338;2022-09-09T00:30:41;101843.05;;;18.67;100.00
50065;BME280;35951;47.848;-122.338;2022-09-09T00:33:11;101843.51;;;18.64;100.00
50065;BME280;35951;47.848;-122.338;2022-09-09T00:35:49;101848.36;;;18.59;100.00
50065;BME280;35951;47.848;-122.338;2022-09-09T00:38:40;101840.46;;;18.56;100.00
50065;BME280;35951;47.848;-122.338;2022-09-09T00:41:26;101844.41;;;18.55;100.00
50065;BME280;35951;47.848;-122.338;2022-09-09T00:44:30;101848.80;;;18.51;100.00
50065;BME280;35951;47.848;-122.338;2022-09-09T00:53:57;101843.16;;;18.32;100.00
50065;BME280;35951;47.848;-122.338;2022-09-09T00:56:34;101838.79;;;18.31;100.00
50065;BME280;35951;47.848;-122.338;2022-09-09T01:02:11;101832.69;;;18.21;100.00
50065;BME280;35951;47.848;-122.338;2022-09-09T01:04:48;101826.52;;;18.19;100.00
50065;BME280;35951;47.848;-122.338;2022-09-09T01:07:17;101827.42;;;18.21;100.00
50065;BME280;35951;47.848;-122.338;2022-09-09T01:09:57;101819.95;;;18.22;100.00
50065;BME280;35951;47.848;-122.338;2022-09-09T01:12:40;101818.64;;;18.22;100.00
50065;BME280;35951;47.848;-122.338;2022-09-09T01:15:12;101818.22;;;18.21;100.00
50065;BME280;35951;47.848;-122.338;2022-09-09T01:18:05;101819.53;;;18.19;100.00
50065;BME280;35951;47.848;-122.338;2022-09-09T01:21:01;101814.72;;;18.17;100.00
50065;BME280;35951;47.848;-122.338;2022-09-09T01:26:42;101809.02;;;18.21;100.00
50065;BME280;35951;47.848;-122.338;2022-09-09T01:29:17;101805.07;;;18.21;100.00
50065;BME280;35951;47.848;-122.338;2022-09-09T01:31:57;101803.30;;;18.20;100.00
50065;BME280;35951;47.848;-122.338;2022-09-09T01:34:43;101799.81;;;18.19;100.00
50065;BME280;35951;47.848;-122.338;2022-09-09T01:37:12;101799.36;;;18.17;100.00
50065;BME280;35951;47.848;-122.338;2022-09-09T01:39:43;101798.49;;;18.16;100.00
50065;BME280;35951;47.848;-122.338;2022-09-09T01:42:13;101794.55;;;18.18;100.00
50065;BME280;35951;47.848;-122.338;2022-09-09T01:44:42;101791.47;;;18.20;100.00
50065;BME280;35951;47.848;-122.338;2022-09-09T01:47:12;101781.41;;;18.21;100.00
50065;BME280;35951;47.848;-122.338;2022-09-09T01:49:41;101787.52;;;18.21;100.00
50065;BME280;35951;47.848;-122.338;2022-09-09T01:52:09;101778.32;;;18.21;100.00
50065;BME280;35951;47.848;-122.338;2022-09-09T01:54:36;101769.98;;;18.25;100.00
50065;BME280;35951;47.848;-122.338;2022-09-09T01:57:11;101772.16;;;18.24;100.00
50065;BME280;35951;47.848;-122.338;2022-09-09T02:00:05;101767.77;;;18.26;100.00
50065;BME280;35951;47.848;-122.338;2022-09-09T02:05:28;101771.27;;;18.30;100.00
50065;BME280;35951;47.848;-122.338;2022-09-09T02:08:21;101774.80;;;18.29;100.00
50065;BME280;35951;47.848;-122.338;2022-09-09T02:11:17;101781.37;;;18.27;100.00
50065;BME280;35951;47.848;-122.338;2022-09-09T02:13:47;101777.88;;;18.27;100.00
50065;BME280;35951;47.848;-122.338;2022-09-09T02:16:25;101776.55;;;18.27;100.00
50065;BME280;35951;47.848;-122.338;2022-09-09T02:19:14;101767.35;;;18.27;100.00
50065;BME280;35951;47.848;-122.338;2022-09-09T02:21:57;101770.84;;;18.24;100.00
50065;BME280;35951;47.848;-122.338;2022-09-09T02:24:22;101767.80;;;18.23;100.00
50065;BME280;35951;47.848;-122.338;2022-09-09T02:26:52;101771.30;;;18.20;100.00
50065;BME280;35951;47.848;-122.338;2022-09-09T02:29:30;101777.91;;;18.17;100.00
50065;BME280;35951;47.848;-122.338;2022-09-09T02:32:06;101772.64;;;18.14;100.00
50065;BME280;35951;47.848;-122.338;2022-09-09T02:34:33;101769.59;;;18.07;100.00
50065;BME280;35951;47.848;-122.338;2022-09-09T02:37:04;101771.35;;;18.02;100.00
50065;BME280;35951;47.848;-122.338;2022-09-09T02:39:34;101766.53;;;17.97;100.00
50065;BME280;35951;47.848;-122.338;2022-09-09T02:42:01;101768.75;;;17.93;100.00
50065;BME280;35951;47.848;-122.338;2022-09-09T02:44:31;101763.93;;;17.88;100.00
50065;BME280;35951;47.848;-122.338;2022-09-09T02:47:05;101765.23;;;17.81;100.00
50065;BME280;35951;47.848;-122.338;2022-09-09T02:49:59;101758.66;;;17.75;100.00
50065;BME280;35951;47.848;-122.338;2022-09-09T02:55:41;101764.39;;;17.61;100.00
50065;BME280;35951;47.848;-122.338;2022-09-09T02:58:25;101762.20;;;17.54;100.00
50065;BME280;35951;47.848;-122.338;2022-09-09T03:00:53;101763.52;;;17.46;100.00
50065;BME280;35951;47.848;-122.338;2022-09-09T03:03:21;101767.44;;;17.40;100.00
50065;BME280;35951;47.848;-122.338;2022-09-09T03:05:50;101768.31;;;17.33;100.00
50065;BME280;35951;47.848;-122.338;2022-09-09T03:08:18;101768.77;;;17.25;100.00
50065;BME280;35951;47.848;-122.338;2022-09-09T03:10:46;101767.86;;;17.15;100.00
50065;BME280;35951;47.848;-122.338;2022-09-09T03:13:22;101759.96;;;17.04;100.00
50065;BME280;35951;47.848;-122.338;2022-09-09T03:15:47;101770.47;;;16.94;100.00
50065;BME280;35951;47.848;-122.338;2022-09-09T03:18:16;101770.88;;;16.85;100.00
50065;BME280;35951;47.848;-122.338;2022-09-09T03:20:45;101767.33;;;16.76;100.00
50065;BME280;35951;47.848;-122.338;2022-09-09T03:23:18;101774.74;;;16.68;100.00
50065;BME280;35951;47.848;-122.338;2022-09-09T03:25:49;101764.65;;;16.62;100.00
50065;BME280;35951;47.848;-122.338;2022-09-09T03:28:19;101767.25;;;16.54;100.00
50065;BME280;35951;47.848;-122.338;2022-09-09T03:30:47;101766.77;;;16.45;100.00
50065;BME280;35951;47.848;-122.338;2022-09-09T03:33:15;101773.31;;;16.39;100.00
50065;BME280;35951;47.848;-122.338;2022-09-09T03:35:47;101772.41;;;16.33;100.00
50065;BME280;35951;47.848;-122.338;2022-09-09T03:38:14;101772.80;;;16.26;100.00
50065;BME280;35951;47.848;-122.338;2022-09-09T03:40:54;101771.47;;;16.20;100.00
50065;BME280;35951;47.848;-122.338;2022-09-09T03:43:25;101777.11;;;16.15;100.00
50065;BME280;35951;47.848;-122.338;2022-09-09T03:45:54;101781.45;;;16.09;100.00
50065;BME280;35951;47.848;-122.338;2022-09-09T03:48:25;101781.84;;;16.04;100.00
50065;BME280;35951;47.848;-122.338;2022-09-09T03:50:54;101780.95;;;16.01;100.00
50065;BME280;35951;47.848;-122.338;2022-09-09T03:53:24;101774.84;;;15.97;100.00
50065;BME280;35951;47.848;-122.338;2022-09-09T03:55:53;101777.45;;;15.96;100.00
50065;BME280;35951;47.848;-122.338;2022-09-09T03:58:22;101777.00;;;15.95;100.00
50065;BME280;35951;47.848;-122.338;2022-09-09T04:00:54;101777.42;;;15.92;100.00
50065;BME280;35951;47.848;-122.338;2022-09-09T04:03:26;101781.34;;;15.91;100.00
50065;BME280;35951;47.848;-122.338;2022-09-09T04:05:55;101775.20;;;15.87;100.00
50065;BME280;35951;47.848;-122.338;2022-09-09T04:08:24;101776.04;;;15.82;100.00
50065;BME280;35951;47.848;-122.338;2022-09-09T04:10:53;101775.13;;;15.77;100.00
50065;BME280;35951;47.848;-122.338;2022-09-09T04:13:25;101773.77;;;15.72;100.00
50065;BME280;35951;47.848;-122.338;2022-09-09T04:15:57;101774.58;;;15.68;100.00
50065;BME280;35951;47.848;-122.338;2022-09-09T04:18:26;101776.77;;;15.65;100.00
50065;BME280;35951;47.848;-122.338;2022-09-09T04:20:56;101771.91;;;15.60;100.00
50065;BME280;35951;47.848;-122.338;2022-09-09T04:23:25;101766.64;;;15.57;100.00
50065;BME280;35951;47.848;-122.338;2022-09-09T04:25:56;101764.88;;;15.53;100.00
50065;BME280;35951;47.848;-122.338;2022-09-09T04:28:27;101767.03;;;15.49;100.00
50065;BME280;35951;47.848;-122.338;2022-09-09T04:30:56;101762.64;;;15.45;100.00
50065;BME280;35951;47.848;-122.338;2022-09-09T04:33:24;101766.11;;;15.44;100.00
50065;BME280;35951;47.848;-122.338;2022-09-09T04:35:52;101765.22;;;15.42;100.00
50065;BME280;35951;47.848;-122.338;2022-09-09T04:38:21;101764.78;;;15.39;100.00
50065;BME280;35951;47.848;-122.338;2022-09-09T04:40:50;101760.80;;;15.34;100.00
50065;BME280;35951;47.848;-122.338;2022-09-09T04:43:18;101759.47;;;15.30;100.00
50065;BME280;35951;47.848;-122.338;2022-09-09T04:45:48;101761.60;;;15.27;100.00
50065;BME280;35951;47.848;-122.338;2022-09-09T04:48:17;101759.39;;;15.24;100.00
50065;BME280;35951;47.848;-122.338;2022-09-09T04:50:56;101757.19;;;15.22;100.00
50065;BME280;35951;47.848;-122.338;2022-09-09T04:53:25;101755.02;;;15.21;100.00
50065;BME280;35951;47.848;-122.338;2022-09-09T04:56:04;101747.99;;;15.19;100.00
50065;BME280;35951;47.848;-122.338;2022-09-09T04:58:31;101754.95;;;15.16;100.00
50065;BME280;35951;47.848;-122.338;2022-09-09T05:01:13;101751.87;;;15.12;100.00
50065;BME280;35951;47.848;-122.338;2022-09-09T05:03:38;101750.98;;;15.10;100.00
50065;BME280;35951;47.848;-122.338;2022-09-09T05:06:10;101751.81;;;15.08;100.00
50065;BME280;35951;47.848;-122.338;2022-09-09T05:08:40;101753.98;;;15.05;100.00
50065;BME280;35951;47.848;-122.338;2022-09-09T05:11:24;101757.47;;;15.03;100.00
50065;BME280;35951;47.848;-122.338;2022-09-09T05:13:53;101760.47;;;15.01;100.00
50065;BME280;35951;47.848;-122.338;2022-09-09T05:16:21;101754.33;;;14.97;100.00
50065;BME280;35951;47.848;-122.338;2022-09-09T05:18:49;101752.98;;;14.92;100.00
50065;BME280;35951;47.848;-122.338;2022-09-09T05:21:21;101750.75;;;14.87;100.00
50065;BME280;35951;47.848;-122.338;2022-09-09T05:23:54;101750.26;;;14.82;100.00
50065;BME280;35951;47.848;-122.338;2022-09-09T05:26:22;101750.19;;;14.77;100.00
50065;BME280;35951;47.848;-122.338;2022-09-09T05:28:50;101747.98;;;14.72;100.00
50065;BME280;35951;47.848;-122.338;2022-09-09T05:31:18;101747.91;;;14.67;100.00
50065;BME280;35951;47.848;-122.338;2022-09-09T05:33:47;101742.21;;;14.63;100.00
50065;BME280;35951;47.848;-122.338;2022-09-09T05:36:18;101740.86;;;14.60;100.00
50065;BME280;35951;47.848;-122.338;2022-09-09T05:38:48;101739.97;;;14.58;100.00
50065;BME280;35951;47.848;-122.338;2022-09-09T05:41:15;101739.02;;;14.54;100.00
50065;BME280;35951;47.848;-122.338;2022-09-09T05:43:44;101729.88;;;14.54;100.00
50065;BME280;35951;47.848;-122.338;2022-09-09T05:46:18;101727.23;;;14.53;100.00
50065;BME280;35951;47.848;-122.338;2022-09-09T05:48:48;101724.59;;;14.51;100.00
50065;BME280;35951;47.848;-122.338;2022-09-09T05:51:25;101725.47;;;14.50;100.00
50065;BME280;35951;47.848;-122.338;2022-09-09T05:53:55;101730.22;;;14.48;100.00
50065;BME280;35951;47.848;-122.338;2022-09-09T05:56:27;101726.28;;;14.45;100.00
50065;BME280;35951;47.848;-122.338;2022-09-09T05:58:56;101724.52;;;14.44;100.00
50065;BME280;35951;47.848;-122.338;2022-09-09T06:01:32;101724.06;;;14.41;100.00
50065;BME280;35951;47.848;-122.338;2022-09-09T06:04:01;101728.39;;;14.40;100.00
50065;BME280;35951;47.848;-122.338;2022-09-09T06:06:37;101725.76;;;14.37;100.00
50065;BME280;35951;47.848;-122.338;2022-09-09T06:09:04;101722.69;;;14.36;100.00
50065;BME280;35951;47.848;-122.338;2022-09-09T06:11:37;101723.94;;;14.33;100.00
50065;BME280;35951;47.848;-122.338;2022-09-09T06:14:06;101723.48;;;14.31;100.00
50065;BME280;35951;47.848;-122.338;2022-09-09T06:16:35;101721.75;;;14.30;100.00
50065;BME280;35951;47.848;-122.338;2022-09-09T06:19:04;101719.14;;;14.30;100.00
50065;BME280;35951;47.848;-122.338;2022-09-09T06:21:34;101716.52;;;14.30;100.00
50065;BME280;35951;47.848;-122.338;2022-09-09T06:24:04;101719.55;;;14.29;100.00
50065;BME280;35951;47.848;-122.338;2022-09-09T06:26:34;101716.50;;;14.28;100.00
50065;BME280;35951;47.848;-122.338;2022-09-09T06:29:04;101713.89;;;14.28;100.00
50065;BME280;35951;47.848;-122.338;2022-09-09T06:31:32;101713.89;;;14.28;100.00
50065;BME280;35951;47.848;-122.338;2022-09-09T06:34:05;101712.58;;;14.28;100.00
50065;BME280;35951;47.848;-122.338;2022-09-09T06:36:35;101711.27;;;14.28;100.00
50065;BME280;35951;47.848;-122.338;2022-09-09T06:39:05;101708.22;;;14.29;100.00
50065;BME280;35951;47.848;-122.338;2022-09-09T06:41:33;101713.89;;;14.28;100.00
50065;BME280;35951;47.848;-122.338;2022-09-09T06:44:00;101714.75;;;14.29;100.00
50065;BME280;35951;47.848;-122.338;2022-09-09T06:46:30;101710.81;;;14.27;100.00
50065;BME280;35951;47.848;-122.338;2022-09-09T06:48:59;101717.32;;;14.26;100.00
50065;BME280;35951;47.848;-122.338;2022-09-09T06:51:29;101720.34;;;14.24;100.00
50065;BME280;35951;47.848;-122.338;2022-09-09T06:53:59;101715.53;;;14.21;100.00
50065;BME280;35951;47.848;-122.338;2022-09-09T06:56:30;101718.09;;;14.18;100.00
50065;BME280;35951;47.848;-122.338;2022-09-09T06:59:02;101716.34;;;14.16;100.00
50065;BME280;35951;47.848;-122.338;2022-09-09T07:01:33;101716.31;;;14.14;100.00
50065;BME280;35951;47.848;-122.338;2022-09-09T07:04:06;101718.47;;;14.12;100.00
50065;BME280;35951;47.848;-122.338;2022-09-09T07:06:37;101721.47;;;14.10;100.00
50065;BME280;35951;47.848;-122.338;2022-09-09T07:09:08;101716.66;;;14.08;100.00
50065;BME280;35951;47.848;-122.338;2022-09-09T07:11:47;101713.17;;;14.07;100.00
50065;BME280;35951;47.848;-122.338;2022-09-09T07:14:13;101714.05;;;14.06;100.00
50065;BME280;35951;47.848;-122.338;2022-09-09T07:16:44;101717.50;;;14.05;100.00
50065;BME280;35951;47.848;-122.338;2022-09-09T07:19:16;101716.17;;;14.04;100.00
50065;BME280;35951;47.848;-122.338;2022-09-09T07:21:43;101717.91;;;14.03;100.00
50065;BME280;35951;47.848;-122.338;2022-09-09T07:24:11;101715.30;;;14.03;100.00
50065;BME280;35951;47.848;-122.338;2022-09-09T07:26:39;101720.95;;;14.04;100.00
50065;BME280;35951;47.848;-122.338;2022-09-09T07:29:08;101707.38;;;13.98;100.00
50065;BME280;35951;47.848;-122.338;2022-09-09T07:31:38;101723.19;;;14.06;100.00
50065;BME280;35951;47.848;-122.338;2022-09-09T07:34:06;101726.70;;;14.08;100.00
50065;BME280;35951;47.848;-122.338;2022-09-09T07:36:36;101726.23;;;14.07;100.00
50065;BME280;35951;47.848;-122.338;2022-09-09T07:39:07;101724.06;;;14.07;100.00
50065;BME280;35951;47.848;-122.338;2022-09-09T07:41:39;101718.34;;;14.04;100.00
50065;BME280;35951;47.848;-122.338;2022-09-09T07:44:11;101716.12;;;14.00;100.00
50065;BME280;35951;47.848;-122.338;2022-09-09T07:46:47;101710.00;;;13.98;100.00
50065;BME280;35951;47.848;-122.338;2022-09-09T07:49:14;101703.45;;;13.95;100.00
50065;BME280;35951;47.848;-122.338;2022-09-09T07:51:44;101708.20;;;13.94;100.00
50065;BME280;35951;47.848;-122.338;2022-09-09T07:54:14;101706.88;;;13.93;100.00
50065;BME280;35951;47.848;-122.338;2022-09-09T07:56:44;101710.77;;;13.91;100.00
50065;BME280;35951;47.848;-122.338;2022-09-09T07:59:11;101715.09;;;13.89;100.00
50065;BME280;35951;47.848;-122.338;2022-09-09T08:01:42;101708.55;;;13.86;100.00
50065;BME280;35951;47.848;-122.338;2022-09-09T08:04:13;101709.36;;;13.83;100.00
50065;BME280;35951;47.848;-122.338;2022-09-09T08:06:48;101711.52;;;13.81;100.00
50065;BME280;35951;47.848;-122.338;2022-09-09T08:09:20;101701.02;;;13.78;100.00
50065;BME280;35951;47.848;-122.338;2022-09-09T08:11:51;101700.56;;;13.75;100.00
50065;BME280;35951;47.848;-122.338;2022-09-09T08:14:19;101698.76;;;13.73;100.00
50065;BME280;35951;47.848;-122.338;2022-09-09T08:16:48;101694.84;;;13.73;100.00
50065;BME280;35951;47.848;-122.338;2022-09-09T08:19:17;101696.12;;;13.71;100.00
50065;BME280;35951;47.848;-122.338;2022-09-09T08:21:45;101690.50;;;13.72;100.00
50065;BME280;35951;47.848;-122.338;2022-09-09T08:24:13;101687.45;;;13.72;100.00
50065;BME280;35951;47.848;-122.338;2022-09-09T08:26:43;101683.06;;;13.71;100.00
50065;BME280;35951;47.848;-122.338;2022-09-09T08:29:14;101680.48;;;13.73;100.00
50065;BME280;35951;47.848;-122.338;2022-09-09T08:31:56;101681.34;;;13.73;100.00
50065;BME280;35951;47.848;-122.338;2022-09-09T08:34:26;101683.96;;;13.73;100.00
50065;BME280;35951;47.848;-122.338;2022-09-09T08:36:55;101682.27;;;13.75;100.00
50065;BME280;35951;47.848;-122.338;2022-09-09T08:39:23;101685.76;;;13.76;100.00
50065;BME280;35951;47.848;-122.338;2022-09-09T08:45:09;101684.88;;;13.77;100.00
50065;BME280;35951;47.848;-122.338;2022-09-09T08:50:48;101677.87;;;13.73;100.00
50065;BME280;35951;47.848;-122.338;2022-09-09T08:53:26;101677.41;;;13.70;100.00
50065;BME280;35951;47.848;-122.338;2022-09-09T08:55:56;101681.33;;;13.70;100.00
50065;BME280;35951;47.848;-122.338;2022-09-09T08:58:32;101686.96;;;13.68;100.00
50065;BME280;35951;47.848;-122.338;2022-09-09T09:10:15;101688.65;;;13.65;100.00
50065;BME280;35951;47.848;-122.338;2022-09-09T09:12:47;101682.96;;;13.63;100.00
50065;BME280;35951;47.848;-122.338;2022-09-09T09:15:17;101685.55;;;13.62;100.00
50065;BME280;35951;47.848;-122.338;2022-09-09T09:17:50;101681.23;;;13.62;100.00
50065;BME280;35951;47.848;-122.338;2022-09-09T09:20:40;101680.78;;;13.63;100.00
50065;BME280;35951;47.848;-122.338;2022-09-09T09:23:05;101682.13;;;13.65;100.00
50065;BME280;35951;47.848;-122.338;2022-09-09T09:25:38;101670.80;;;13.66;100.00
50065;BME280;35951;47.848;-122.338;2022-09-09T09:28:23;101671.23;;;13.65;100.00
50065;BME280;35951;47.848;-122.338;2022-09-09T09:31:09;101672.98;;;13.65;100.00
50065;BME280;35951;47.848;-122.338;2022-09-09T09:33:52;101666.48;;;13.66;100.00
50065;BME280;35951;47.848;-122.338;2022-09-09T09:36:19;101668.67;;;13.70;100.00
50065;BME280;35951;47.848;-122.338;2022-09-09T09:38:58;101662.17;;;13.71;100.00
50065;BME280;35951;47.848;-122.338;2022-09-09T09:41:36;101664.37;;;13.72;100.00
50065;BME280;35951;47.848;-122.338;2022-09-09T09:44:19;101661.77;;;13.72;100.00
50065;BME280;35951;47.848;-122.338;2022-09-09T09:46:52;101656.98;;;13.73;100.00
50065;BME280;35951;47.848;-122.338;2022-09-09T09:49:20;101655.23;;;13.73;100.00
50065;BME280;35951;47.848;-122.338;2022-09-09T09:51:48;101646.97;;;13.72;100.00
50065;BME280;35951;47.848;-122.338;2022-09-09T09:54:33;101650.47;;;13.74;100.00
50065;BME280;35951;47.848;-122.338;2022-09-09T09:57:14;101649.63;;;13.75;100.00
50065;BME280;35951;47.848;-122.338;2022-09-09T09:59:43;101646.17;;;13.78;100.00
50065;BME280;35951;47.848;-122.338;2022-09-09T10:02:20;101644.86;;;13.78;100.00
50065;BME280;35951;47.848;-122.338;2022-09-09T10:07:45;101645.78;;;13.81;100.00
50065;BME280;35951;47.848;-122.338;2022-09-09T10:10:25;101643.19;;;13.83;100.00
50065;BME280;35951;47.848;-122.338;2022-09-09T10:19:04;101646.75;;;13.88;100.00
50065;BME280;35951;47.848;-122.338;2022-09-09T10:22:02;101646.77;;;13.91;100.00
50065;BME280;35951;47.848;-122.338;2022-09-09T10:24:49;101642.03;;;13.94;100.00
50065;BME280;35951;47.848;-122.338;2022-09-09T10:30:26;101643.40;;;14.00;100.00
50065;BME280;35951;47.848;-122.338;2022-09-09T10:33:01;101637.33;;;14.01;100.00
50065;BME280;35951;47.848;-122.338;2022-09-09T10:35:49;101626.48;;;14.05;100.00
50065;BME280;35951;47.848;-122.338;2022-09-09T10:43:52;101627.35;;;14.05;100.00
50065;BME280;35951;47.848;-122.338;2022-09-09T10:49:27;101620.77;;;13.99;100.00
50065;BME280;35951;47.848;-122.338;2022-09-09T10:57:39;101633.34;;;13.96;100.00
50065;BME280;35951;47.848;-122.338;2022-09-09T11:00:27;101634.22;;;13.95;100.00
50065;BME280;35951;47.848;-122.338;2022-09-09T11:02:58;101639.00;;;13.96;100.00
50065;BME280;35951;47.848;-122.338;2022-09-09T11:05:42;101639.00;;;13.96;100.00
50065;BME280;35951;47.848;-122.338;2022-09-09T11:08:24;101639.84;;;13.95;100.00
50065;BME280;35951;47.848;-122.338;2022-09-09T11:11:05;101640.31;;;13.96;100.00
50065;BME280;35951;47.848;-122.338;2022-09-09T11:14:01;101645.05;;;13.93;100.00
50065;BME280;35951;47.848;-122.338;2022-09-09T11:16:40;101636.31;;;13.91;100.00
50065;BME280;35951;47.848;-122.338;2022-09-09T11:19:39;101628.03;;;13.89;100.00
50065;BME280;35951;47.848;-122.338;2022-09-09T11:25:08;101622.73;;;13.82;100.00
50065;BME280;35951;47.848;-122.338;2022-09-09T11:42:22;101614.71;;;13.69;100.00
50065;BME280;35951;47.848;-122.338;2022-09-09T11:44:48;101618.60;;;13.67;100.00
50065;BME280;35951;47.848;-122.338;2022-09-09T11:47:27;101619.88;;;13.66;100.00
50065;BME280;35951;47.848;-122.338;2022-09-09T11:50:07;101622.47;;;13.64;100.00
50065;BME280;35951;47.848;-122.338;2022-09-09T11:52:44;101619.42;;;13.63;100.00
50065;BME280;35951;47.848;-122.338;2022-09-09T11:55:33;101625.09;;;13.62;100.00
50065;BME280;35951;47.848;-122.338;2022-09-09T11:58:05;101625.09;;;13.62;100.00
50065;BME280;35951;47.848;-122.338;2022-09-09T12:06:11;101615.44;;;13.58;100.00
50065;BME280;35951;47.848;-122.338;2022-09-09T12:08:56;101612.39;;;13.57;100.00
50065;BME280;35951;47.848;-122.338;2022-09-09T12:11:34;101611.48;;;13.57;100.00
50065;BME280;35951;47.848;-122.338;2022-09-09T12:14:03;101601.92;;;13.56;100.00
50065;BME280;35951;47.848;-122.338;2022-09-09T12:16:35;101606.27;;;13.55;100.00
50065;BME280;35951;47.848;-122.338;2022-09-09T12:19:12;101607.58;;;13.55;100.00
50065;BME280;35951;47.848;-122.338;2022-09-09T12:24:18;101610.59;;;13.55;100.00
50065;BME280;35951;47.848;-122.338;2022-09-09T12:27:11;101610.16;;;13.54;100.00
50065;BME280;35951;47.848;-122.338;2022-09-09T12:30:07;101606.27;;;13.55;100.00
50065;BME280;35951;47.848;-122.338;2022-09-09T12:32:37;101601.89;;;13.54;100.00
50065;BME280;35951;47.848;-122.338;2022-09-09T12:35:11;101604.06;;;13.55;100.00
50065;BME280;35951;47.848;-122.338;2022-09-09T12:37:56;101601.05;;;13.55;100.00
50065;BME280;35951;47.848;-122.338;2022-09-09T12:40:27;101600.62;;;13.56;100.00
50065;BME280;35951;47.848;-122.338;2022-09-09T12:42:56;101597.59;;;13.58;100.00
50065;BME280;35951;47.848;-122.338;2022-09-09T12:45:26;101599.36;;;13.59;100.00
50065;BME280;35951;47.848;-122.338;2022-09-09T12:48:08;101596.73;;;13.57;100.00
50065;BME280;35951;47.848;-122.338;2022-09-09T12:50:46;101589.30;;;13.57;100.00
50065;BME280;35951;47.848;-122.338;2022-09-09T12:53:33;101590.20;;;13.57;100.00
50065;BME280;35951;47.848;-122.338;2022-09-09T12:56:08;101585.87;;;13.59;100.00
50065;BME280;35951;47.848;-122.338;2022-09-09T12:58:37;101583.28;;;13.61;100.00
50065;BME280;35951;47.848;-122.338;2022-09-09T13:01:17;101585.02;;;13.62;100.00
50065;BME280;35951;47.848;-122.338;2022-09-09T13:03:44;101577.59;;;13.60;100.00
50065;BME280;35951;47.848;-122.338;2022-09-09T13:06:21;101578.06;;;13.61;100.00
50065;BME280;35951;47.848;-122.338;2022-09-09T13:08:52;101574.55;;;13.60;100.00
50065;BME280;35951;47.848;-122.338;2022-09-09T13:11:45;101572.40;;;13.61;100.00
50065;BME280;35951;47.848;-122.338;2022-09-09T13:14:23;101572.40;;;13.61;100.00
50065;BME280;35951;47.848;-122.338;2022-09-09T13:17:00;101579.34;;;13.59;100.00
50065;BME280;35951;47.848;-122.338;2022-09-09T13:19:34;101581.92;;;13.58;100.00
50065;BME280;35951;47.848;-122.338;2022-09-09T13:22:26;101583.20;;;13.56;100.00
50065;BME280;35951;47.848;-122.338;2022-09-09T13:27:33;101583.14;;;13.50;100.00
50065;BME280;35951;47.848;-122.338;2022-09-09T13:30:22;101578.33;;;13.48;100.00
50065;BME280;35951;47.848;-122.338;2022-09-09T13:35:49;101575.66;;;13.45;100.00
50065;BME280;35951;47.848;-122.338;2022-09-09T13:41:23;101578.23;;;13.42;100.00
50065;BME280;35951;47.848;-122.338;2022-09-09T13:43:53;101589.56;;;13.42;100.00
50065;BME280;35951;47.848;-122.338;2022-09-09T13:51:43;101579.94;;;13.40;100.00
50065;BME280;35951;47.848;-122.338;2022-09-09T13:54:14;101582.52;;;13.38;100.00
50065;BME280;35951;47.848;-122.338;2022-09-09T13:56:43;101580.79;;;13.37;100.00
50065;BME280;35951;47.848;-122.338;2022-09-09T13:59:13;101581.66;;;13.38;100.00
50065;BME280;35951;47.848;-122.338;2022-09-09T14:01:42;101581.19;;;13.37;100.00
50065;BME280;35951;47.848;-122.338;2022-09-09T14:04:11;101585.55;;;13.36;100.00
50065;BME280;35951;47.848;-122.338;2022-09-09T14:06:40;101575.13;;;13.38;100.00
50065;BME280;35951;47.848;-122.338;2022-09-09T14:09:12;101572.11;;;13.40;100.00
50065;BME280;35951;47.848;-122.338;2022-09-09T14:11:41;101578.66;;;13.41;100.00
50065;BME280;35951;47.848;-122.338;2022-09-09T14:14:10;101566.06;;;13.44;100.00
50065;BME280;35951;47.848;-122.338;2022-09-09T14:16:38;101562.17;;;13.46;100.00
50065;BME280;35951;47.848;-122.338;2022-09-09T14:19:05;101567.88;;;13.50;100.00
50065;BME280;35951;47.848;-122.338;2022-09-09T14:21:34;101561.41;;;13.53;100.00
50065;BME280;35951;47.848;-122.338;2022-09-09T14:24:02;101560.97;;;13.53;100.00
50065;BME280;35951;47.848;-122.338;2022-09-09T14:26:30;101557.95;;;13.54;100.00
50065;BME280;35951;47.848;-122.338;2022-09-09T14:28:58;101554.90;;;13.54;100.00
50065;BME280;35951;47.848;-122.338;2022-09-09T14:31:27;101560.15;;;13.56;100.00